createdAt,value
2023-02-19T00:00:47.433Z,509.00
2023-02-19T00:01:47.456Z,505.00
2023-02-19T00:02:47.412Z,505.00
2023-02-19T00:03:47.555Z,507.00
2023-02-19T00:04:47.411Z,506.00
2023-02-19T00:05:50.362Z,513.00
2023-02-19T00:06:50.359Z,513.00
2023-02-19T00:07:47.358Z,514.00
2023-02-19T00:55:33.152Z,500.00
2023-02-19T00:56:34.150Z,500.00
2023-02-19T00:57:34.116Z,500.00
2023-02-19T00:58:34.107Z,500.00
2023-02-19T00:59:34.096Z,500.00
2023-02-19T01:00:34.108Z,500.00
2023-02-19T01:01:34.108Z,455.00
2023-02-19T01:02:34.067Z,432.00
2023-02-19T01:03:34.063Z,425.00
2023-02-19T01:04:34.120Z,434.00
2023-02-19T01:05:34.036Z,450.00
2023-02-19T01:06:34.041Z,473.00
2023-02-19T01:07:34.018Z,499.00
2023-02-19T01:08:34.050Z,500.00
2023-02-19T01:09:33.995Z,500.00
2023-02-19T01:10:33.986Z,497.00
2023-02-19T01:11:34.021Z,501.00
2023-02-19T01:12:33.970Z,501.00
2023-02-19T01:13:33.967Z,500.00
2023-02-19T01:14:33.960Z,501.00
2023-02-19T01:15:33.943Z,501.00
2023-02-19T01:16:33.937Z,500.00
2023-02-19T01:17:33.921Z,503.00
2023-02-19T01:18:33.915Z,505.00
2023-02-19T01:19:33.922Z,506.00
2023-02-19T01:20:33.900Z,502.00
2023-02-19T01:21:33.890Z,501.00
2023-02-19T01:22:33.875Z,500.00
2023-02-19T01:23:33.868Z,500.00
2023-02-19T01:24:33.861Z,500.00
2023-02-19T01:25:33.863Z,506.00
2023-02-19T01:26:33.843Z,500.00
2023-02-19T01:27:33.863Z,507.00
2023-02-19T01:28:33.830Z,505.00
2023-02-19T01:29:33.813Z,501.00
2023-02-19T01:30:33.964Z,504.00
2023-02-19T01:31:33.974Z,507.00
2023-02-19T01:32:33.798Z,506.00
2023-02-19T01:33:33.806Z,503.00
2023-02-19T01:34:33.772Z,507.00
2023-02-19T01:35:33.765Z,504.00
2023-02-19T01:36:33.752Z,504.00
2023-02-19T01:37:33.746Z,507.00
2023-02-19T01:38:33.736Z,508.00
2023-02-19T01:39:33.726Z,507.00
2023-02-19T01:40:33.718Z,502.00
2023-02-19T01:41:33.716Z,502.00
2023-02-19T01:42:33.708Z,512.00
2023-02-19T01:43:33.729Z,507.00
2023-02-19T01:44:33.684Z,509.00
2023-02-19T01:45:33.676Z,506.00
2023-02-19T01:46:33.760Z,504.00
2023-02-19T01:47:33.665Z,511.00
2023-02-19T01:48:33.649Z,505.00
2023-02-19T01:49:33.639Z,507.00
2023-02-19T01:50:33.636Z,501.00
2023-02-19T01:51:33.628Z,504.00
2023-02-19T01:52:33.630Z,503.00
2023-02-19T01:53:33.606Z,501.00
2023-02-19T01:54:33.597Z,505.00
2023-02-19T01:55:33.589Z,504.00
2023-02-19T01:56:33.588Z,504.00
2023-02-19T01:57:33.570Z,511.00
2023-02-19T01:58:33.571Z,502.00
2023-02-19T01:59:33.592Z,499.00
2023-02-19T02:00:33.579Z,508.00
2023-02-19T02:01:33.531Z,509.00
2023-02-19T02:02:33.528Z,507.00
2023-02-19T02:03:33.525Z,508.00
2023-02-19T02:04:33.509Z,504.00
2023-02-19T02:05:33.501Z,508.00
2023-02-19T02:06:33.486Z,508.00
2023-02-19T02:07:33.480Z,502.00
2023-02-19T02:08:33.478Z,508.00
2023-02-19T02:09:33.468Z,506.00
2023-02-19T02:10:33.456Z,501.00
2023-02-19T02:11:33.445Z,507.00
2023-02-19T02:12:33.437Z,507.00
2023-02-19T02:13:33.427Z,508.00
2023-02-19T02:14:33.423Z,502.00
2023-02-19T02:15:33.434Z,507.00
2023-02-19T02:16:33.457Z,506.00
2023-02-19T02:17:33.392Z,507.00
2023-02-19T02:18:33.389Z,500.00
2023-02-19T02:19:33.388Z,505.00
2023-02-19T04:14:32.360Z,509.00
2023-02-19T04:15:32.355Z,516.00
2023-02-19T04:16:32.387Z,508.00
2023-02-19T04:17:33.289Z,508.00
2023-02-19T04:18:32.322Z,509.00
2023-02-19T04:19:32.314Z,512.00
2023-02-19T04:20:32.305Z,508.00
2023-02-19T04:21:32.298Z,509.00
2023-02-19T04:22:32.283Z,506.00
2023-02-19T04:23:32.290Z,503.00
2023-02-19T04:24:32.270Z,508.00
2023-02-19T05:08:30.870Z,507.00
2023-02-19T08:57:29.769Z,507.00
2023-02-19T10:47:28.772Z,517.00
2023-02-19T10:48:28.766Z,513.00
2023-02-19T13:23:27.371Z,514.00
2023-02-19T14:19:26.853Z,543.00
2023-02-19T14:22:26.830Z,545.00
2023-02-19T15:09:26.391Z,537.00
2023-02-19T16:43:25.556Z,558.00
2023-02-19T16:51:25.471Z,567.00
2023-02-19T16:58:25.406Z,563.00
2023-02-19T17:00:25.393Z,567.00
2023-02-19T17:03:25.363Z,568.00
2023-02-19T17:05:25.350Z,566.00
2023-02-19T17:10:25.314Z,563.00
2023-02-19T17:11:25.295Z,568.00
2023-02-19T17:13:25.269Z,563.00
2023-02-19T17:14:25.268Z,570.00
2023-02-19T17:15:25.252Z,566.00
2023-02-19T17:16:25.349Z,561.00
2023-02-19T17:18:25.238Z,560.00
2023-02-19T17:20:25.212Z,565.00
2023-02-19T17:21:25.198Z,559.00
2023-02-19T17:22:25.188Z,562.00
2023-02-19T17:24:25.170Z,558.00
2023-02-19T17:25:25.173Z,557.00
2023-02-19T17:26:25.151Z,555.00
2023-02-19T17:27:25.145Z,557.00
2023-02-19T17:28:25.139Z,549.00
2023-02-19T17:29:25.125Z,550.00
2023-02-19T17:30:25.156Z,548.00
2023-02-19T17:31:25.209Z,546.00
2023-02-19T17:32:25.221Z,551.00
2023-02-19T17:33:25.094Z,552.00
2023-02-19T17:34:25.083Z,552.00
2023-02-19T17:35:25.070Z,548.00
2023-02-19T17:36:25.060Z,553.00
2023-02-19T17:37:25.055Z,550.00
2023-02-19T17:38:25.046Z,556.00
2023-02-19T17:39:25.053Z,556.00
2023-02-19T17:40:32.752Z,553.00
2023-02-19T17:41:25.028Z,554.00
2023-02-19T17:42:25.007Z,555.00
2023-02-19T17:43:25.577Z,556.00
2023-02-19T17:44:24.984Z,561.00
2023-02-19T17:45:24.980Z,561.00
2023-02-19T17:46:24.968Z,561.00
2023-02-19T17:47:24.961Z,560.00
2023-02-19T17:48:24.956Z,562.00
2023-02-19T17:49:24.939Z,560.00
2023-02-19T17:50:24.931Z,563.00
2023-02-19T17:51:24.943Z,565.00
2023-02-19T17:52:25.556Z,562.00
2023-02-19T17:53:24.928Z,561.00
2023-02-19T17:54:24.905Z,557.00
2023-02-19T17:55:24.885Z,560.00
2023-02-19T17:56:24.882Z,560.00
2023-02-19T17:57:24.867Z,559.00
2023-02-19T17:58:24.858Z,561.00
2023-02-19T17:59:24.851Z,562.00
2023-02-19T18:00:24.861Z,557.00
2023-02-19T18:01:24.906Z,561.00
2023-02-19T18:02:24.825Z,552.00
2023-02-19T18:03:24.807Z,558.00
2023-02-19T18:04:24.805Z,556.00
2023-02-19T18:05:24.803Z,562.00
2023-02-19T18:06:24.807Z,556.00
2023-02-19T18:07:24.784Z,552.00
2023-02-19T18:08:24.766Z,553.00
2023-02-19T18:09:24.755Z,563.00
2023-02-19T18:10:24.752Z,554.00
2023-02-19T18:11:24.742Z,555.00
2023-02-19T18:12:24.745Z,558.00
2023-02-19T18:13:24.724Z,550.00
2023-02-19T18:14:24.720Z,558.00
2023-02-19T18:15:24.704Z,554.00
2023-02-19T18:16:24.734Z,555.00
2023-02-19T18:17:24.689Z,559.00
2023-02-19T18:18:24.698Z,552.00
2023-02-19T18:19:24.669Z,554.00
2023-02-19T18:20:24.662Z,548.00
2023-02-19T18:21:24.655Z,555.00
2023-02-19T18:22:24.644Z,554.00
2023-02-19T18:23:24.634Z,554.00
2023-02-19T18:24:24.621Z,558.00
2023-02-19T18:25:24.623Z,559.00
2023-02-19T18:26:24.634Z,556.00
2023-02-19T18:27:24.596Z,555.00
2023-02-19T18:28:24.588Z,563.00
2023-02-19T18:29:24.588Z,554.00
2023-02-19T18:30:24.643Z,561.00
2023-02-19T18:31:24.656Z,556.00
2023-02-19T18:32:24.556Z,558.00
2023-02-19T18:33:24.542Z,557.00
2023-02-19T18:34:24.559Z,560.00
2023-02-19T18:35:24.523Z,560.00
2023-02-19T18:36:24.522Z,563.00
2023-02-19T18:37:24.504Z,552.00
2023-02-19T18:38:24.495Z,559.00
2023-02-19T18:39:24.483Z,561.00
2023-02-19T18:40:24.477Z,557.00
2023-02-19T18:41:24.467Z,561.00
2023-02-19T18:42:24.460Z,556.00
2023-02-19T18:43:24.447Z,562.00
2023-02-19T18:44:24.445Z,561.00
2023-02-19T18:45:24.434Z,559.00
2023-02-19T18:46:24.512Z,553.00
2023-02-19T18:47:24.410Z,565.00
2023-02-19T18:48:24.407Z,553.00
2023-02-19T18:49:24.402Z,560.00
2023-02-19T18:50:24.384Z,559.00
2023-02-19T18:51:24.381Z,559.00
2023-02-19T18:52:24.362Z,557.00
2023-02-19T18:53:24.363Z,554.00
2023-02-19T18:54:24.340Z,553.00
2023-02-19T18:55:24.335Z,557.00
2023-02-19T18:56:24.333Z,550.00
2023-02-19T18:57:24.331Z,563.00
2023-02-19T18:58:24.312Z,558.00
2023-02-19T18:59:24.304Z,553.00
2023-02-19T19:00:24.297Z,556.00
2023-02-19T19:01:24.320Z,552.00
2023-02-19T19:02:24.304Z,553.00
2023-02-19T19:03:24.263Z,558.00
2023-02-19T19:04:24.320Z,556.00
2023-02-19T19:05:24.255Z,556.00
2023-02-19T19:06:24.242Z,555.00
2023-02-19T19:07:24.241Z,555.00
2023-02-19T19:08:24.218Z,560.00
2023-02-19T19:09:24.208Z,565.00
2023-02-19T19:10:24.210Z,561.00
2023-02-19T19:11:24.203Z,559.00
2023-02-19T19:12:24.188Z,565.00
2023-02-19T19:13:24.184Z,565.00
2023-02-19T19:14:24.163Z,563.00
2023-02-19T19:15:24.171Z,554.00
2023-02-19T19:16:24.148Z,555.00
2023-02-19T19:17:24.140Z,562.00
2023-02-19T19:18:24.137Z,564.00
2023-02-19T19:19:24.125Z,562.00
2023-02-19T19:20:24.181Z,560.00
2023-02-19T19:21:24.114Z,559.00
2023-02-19T19:22:24.145Z,560.00
2023-02-19T19:23:24.085Z,559.00
2023-02-19T19:24:24.101Z,562.00
2023-02-19T19:25:24.079Z,564.00
2023-02-19T19:26:24.062Z,568.00
2023-02-19T19:27:24.053Z,554.00
2023-02-19T19:28:24.058Z,566.00
2023-02-19T19:29:24.041Z,559.00
2023-02-19T19:30:24.130Z,559.00
2023-02-19T19:31:24.119Z,555.00
2023-02-19T19:32:24.077Z,553.00
2023-02-19T19:33:24.008Z,559.00
2023-02-19T19:34:23.985Z,556.00
2023-02-19T19:35:24.012Z,556.00
2023-02-19T19:36:23.970Z,553.00
2023-02-19T19:37:23.954Z,558.00
2023-02-19T19:38:23.951Z,552.00
2023-02-19T19:39:23.940Z,558.00
2023-02-19T19:40:23.953Z,558.00
2023-02-19T19:41:23.922Z,553.00
2023-02-19T19:42:23.920Z,560.00
2023-02-19T19:43:23.897Z,556.00
2023-02-19T19:44:23.889Z,558.00
2023-02-19T19:45:23.925Z,549.00
2023-02-19T19:46:23.916Z,555.00
2023-02-19T19:47:23.864Z,553.00
2023-02-19T19:48:23.859Z,552.00
2023-02-19T19:49:23.862Z,554.00
2023-02-19T19:50:23.837Z,557.00
2023-02-19T19:51:23.829Z,549.00
2023-02-19T19:52:23.818Z,555.00
2023-02-19T19:53:23.808Z,559.00
2023-02-19T19:54:23.802Z,556.00
2023-02-19T19:55:23.799Z,558.00
2023-02-19T19:56:23.788Z,556.00
2023-02-19T19:57:23.778Z,547.00
2023-02-19T19:58:23.762Z,555.00
2023-02-19T19:59:23.749Z,554.00
2023-02-19T20:00:23.740Z,548.00
2023-02-19T20:01:23.786Z,555.00
2023-02-19T20:02:23.798Z,558.00
2023-02-19T20:03:23.714Z,552.00
2023-02-19T20:04:23.714Z,551.00
2023-02-19T20:05:23.695Z,556.00
2023-02-19T20:06:23.688Z,559.00
2023-02-19T20:07:23.686Z,553.00
2023-02-19T20:08:23.672Z,551.00
2023-02-19T20:09:23.660Z,549.00
2023-02-19T20:10:23.647Z,559.00
2023-02-19T20:11:23.641Z,551.00
2023-02-19T20:12:23.632Z,549.00
2023-02-19T20:14:23.616Z,557.00
2023-02-19T20:15:23.602Z,559.00
2023-02-19T20:16:23.591Z,555.00
2023-02-19T20:17:23.581Z,551.00
2023-02-19T20:18:23.573Z,562.00
2023-02-19T20:19:23.568Z,557.00
2023-02-19T20:20:23.553Z,559.00
2023-02-19T20:21:23.541Z,556.00
2023-02-19T20:22:23.535Z,552.00
2023-02-19T20:23:23.525Z,558.00
2023-02-19T20:24:23.528Z,554.00
2023-02-19T20:31:23.539Z,553.00
2023-02-19T20:32:23.513Z,555.00
2023-02-19T20:33:23.431Z,554.00
2023-02-19T20:34:23.428Z,554.00
2023-02-19T20:35:25.688Z,553.00
2023-02-19T20:36:23.409Z,553.00
2023-02-19T20:37:23.399Z,553.00
2023-02-19T20:38:23.385Z,546.00
2023-02-19T20:39:23.376Z,554.00
2023-02-19T20:40:23.368Z,558.00
2023-02-19T20:41:23.364Z,550.00
2023-02-19T20:42:23.345Z,551.00
2023-02-19T20:43:23.336Z,551.00
2023-02-19T20:44:23.339Z,552.00
2023-02-19T20:45:23.322Z,552.00
2023-02-19T20:46:23.322Z,550.00
2023-02-19T20:47:23.300Z,548.00
2023-02-19T20:48:23.293Z,549.00
2023-02-19T20:49:23.283Z,548.00
2023-02-19T20:50:23.272Z,551.00
2023-02-19T20:51:23.263Z,546.00
2023-02-19T20:52:24.125Z,548.00
2023-02-19T20:53:23.245Z,555.00
2023-02-19T20:54:23.240Z,550.00
2023-02-19T20:55:23.227Z,541.00
2023-02-19T20:56:23.219Z,542.00
2023-02-19T20:57:23.213Z,546.00
2023-02-19T20:58:23.195Z,547.00
2023-02-19T20:59:23.190Z,543.00
2023-02-19T21:00:23.203Z,550.00
2023-02-19T21:01:23.186Z,552.00
2023-02-19T21:02:23.242Z,551.00
2023-02-19T21:03:23.166Z,546.00
2023-02-19T21:04:23.144Z,543.00
2023-02-19T21:05:23.131Z,548.00
2023-02-19T21:06:23.120Z,543.00
2023-02-19T21:07:23.112Z,544.00
2023-02-19T21:08:23.109Z,552.00
2023-02-19T21:09:23.102Z,545.00
2023-02-19T21:10:23.092Z,546.00
2023-02-19T21:11:23.074Z,547.00
2023-02-19T21:12:23.064Z,541.00
2023-02-19T21:13:23.059Z,545.00
2023-02-19T21:14:23.052Z,543.00
2023-02-19T21:15:23.038Z,545.00
2023-02-19T21:16:23.082Z,540.00
2023-02-19T21:17:23.028Z,548.00
2023-02-19T21:18:23.015Z,542.00
2023-02-19T21:19:23.007Z,544.00
2023-02-19T21:20:22.990Z,546.00
2023-02-19T21:21:22.981Z,545.00
2023-02-19T21:22:22.986Z,543.00
2023-02-19T21:23:22.963Z,546.00
2023-02-19T21:24:22.962Z,548.00
2023-02-19T21:25:22.956Z,544.00
2023-02-19T21:26:23.633Z,542.00
2023-02-19T21:27:23.639Z,541.00
2023-02-19T21:28:22.917Z,544.00
2023-02-19T21:29:23.638Z,549.00
2023-02-19T21:30:22.941Z,545.00
2023-02-19T21:31:25.386Z,545.00
2023-02-19T21:32:23.074Z,545.00
2023-02-19T21:33:22.869Z,546.00
2023-02-19T21:34:23.641Z,547.00
2023-02-19T21:35:22.854Z,551.00
2023-02-19T21:36:22.855Z,550.00
2023-02-19T21:37:22.848Z,546.00
2023-02-19T21:38:22.826Z,553.00
2023-02-19T21:39:22.819Z,550.00
2023-02-19T21:40:22.809Z,551.00
2023-02-19T21:41:22.799Z,550.00
2023-02-19T21:42:22.782Z,551.00
2023-02-19T21:43:22.785Z,551.00
2023-02-19T21:44:22.810Z,552.00
2023-02-19T21:45:22.767Z,553.00
2023-02-19T21:46:22.754Z,546.00
2023-02-19T21:47:22.759Z,546.00
2023-02-19T21:48:22.733Z,548.00
2023-02-19T21:49:22.731Z,548.00
2023-02-19T21:50:22.737Z,550.00
2023-02-19T21:51:23.847Z,548.00
2023-02-19T21:52:22.693Z,555.00
2023-02-19T21:53:22.689Z,551.00
2023-02-19T21:54:22.680Z,549.00
2023-02-19T21:55:22.665Z,549.00
2023-02-19T21:56:22.652Z,551.00
2023-02-19T21:57:22.646Z,541.00
2023-02-19T21:58:22.639Z,542.00
2023-02-19T21:59:22.649Z,548.00
2023-02-19T22:00:22.616Z,545.00
2023-02-19T22:01:22.620Z,551.00
2023-02-19T22:02:22.611Z,546.00
2023-02-19T22:03:22.598Z,551.00
2023-02-19T22:04:22.580Z,549.00
2023-02-19T22:05:22.569Z,552.00
2023-02-19T22:06:22.570Z,552.00
2023-02-19T22:07:22.560Z,553.00
2023-02-19T22:08:22.540Z,556.00
2023-02-19T22:09:22.535Z,552.00
2023-02-19T22:10:22.524Z,549.00
2023-02-19T22:11:22.511Z,551.00
2023-02-19T22:12:22.503Z,551.00
2023-02-19T22:13:22.498Z,548.00
2023-02-19T22:14:22.486Z,545.00
2023-02-19T22:15:25.151Z,549.00
2023-02-19T22:17:22.459Z,550.00
2023-02-19T22:18:22.444Z,551.00
2023-02-19T22:19:22.438Z,552.00
2023-02-19T22:20:22.428Z,548.00
2023-02-19T22:21:22.420Z,551.00
2023-02-19T22:22:22.410Z,551.00
2023-02-19T22:23:22.399Z,547.00
2023-02-19T22:24:22.386Z,549.00
2023-02-19T22:25:22.377Z,555.00
2023-02-19T22:26:22.384Z,546.00
2023-02-19T22:27:22.364Z,547.00
2023-02-19T22:28:22.355Z,544.00
2023-02-19T22:29:22.346Z,550.00
2023-02-19T22:30:22.400Z,553.00
2023-02-19T22:31:22.405Z,548.00
2023-02-19T22:32:22.439Z,550.00
2023-02-19T22:33:22.301Z,552.00
2023-02-19T22:34:22.293Z,549.00
2023-02-19T22:35:22.286Z,547.00
2023-02-19T22:36:22.289Z,548.00
2023-02-19T22:37:22.277Z,543.00
2023-02-19T22:38:22.265Z,553.00
2023-02-19T22:39:22.248Z,545.00
2023-02-19T22:40:22.242Z,550.00
2023-02-19T22:41:22.236Z,548.00
2023-02-19T22:42:22.224Z,541.00
2023-02-19T22:43:22.213Z,545.00
2023-02-19T22:44:22.209Z,543.00
2023-02-19T22:45:22.196Z,541.00
2023-02-19T22:46:22.218Z,549.00
2023-02-19T22:47:22.190Z,548.00
2023-02-19T22:48:30.143Z,552.00
2023-02-19T22:49:22.169Z,553.00
2023-02-19T22:50:22.170Z,553.00
2023-02-19T22:51:22.150Z,551.00
2023-02-19T22:52:22.133Z,551.00
2023-02-19T22:53:22.144Z,548.00
2023-02-19T22:54:22.121Z,551.00
2023-02-19T22:55:22.123Z,551.00
2023-02-19T22:56:22.115Z,548.00
2023-02-19T22:57:22.103Z,549.00
2023-02-19T22:58:22.096Z,546.00
2023-02-19T22:59:22.075Z,550.00
2023-02-19T23:00:22.077Z,552.00
2023-02-19T23:01:22.139Z,546.00
2023-02-19T23:02:22.102Z,546.00
2023-02-19T23:03:22.044Z,548.00
2023-02-19T23:04:22.081Z,551.00
2023-02-19T23:05:22.017Z,547.00
2023-02-19T23:06:22.010Z,548.00
2023-02-19T23:07:22.004Z,548.00
2023-02-19T23:09:22.001Z,547.00
2023-02-19T23:10:21.981Z,546.00
2023-02-19T23:11:21.969Z,541.00
2023-02-19T23:12:21.959Z,548.00
2023-02-19T23:13:21.946Z,541.00
2023-02-19T23:14:21.950Z,545.00
2023-02-19T23:15:21.932Z,542.00
2023-02-19T23:16:21.984Z,545.00
2023-02-19T23:17:21.939Z,548.00
2023-02-19T23:18:21.898Z,542.00
2023-02-19T23:19:21.895Z,535.00
2023-02-19T23:20:21.888Z,541.00
2023-02-19T23:21:21.881Z,540.00
2023-02-19T23:22:21.866Z,537.00
2023-02-19T23:23:21.857Z,545.00
2023-02-19T23:24:21.844Z,544.00
2023-02-19T23:25:21.834Z,537.00
2023-02-19T23:26:21.833Z,534.00
2023-02-19T23:27:21.830Z,536.00
2023-02-19T23:45:21.646Z,546.00
